Terminal Aerodrome Forecast
Issued by NWS Topeka, KS

Home | Current Version | Previous Version | Graphics & Text | Print | Product List | Glossary On
Versions: 1 2 3 4 5 6 7 8 9 10 11 12 13 14 15 16 17 18 19 20 21 22 23
000
FTUS43 KTOP 180500
TAFTOP
TAF
KTOP 180520Z 1806/1906 08004KT 1/2SM FG BKN002
      TEMPO 1806/1809 2SM BR SCT002
     FM181400 10009KT 2SM BR BKN008
     FM181600 10009KT 6SM BR BKN015
     FM181700 11008KT P6SM SCT025 BKN150=

USA.gov is the U.S. government's official web portal to all federal, state and local government web resources and services.